Time;durP1;ratioP1;P1;durP2;ratioP2;P2;SDS_P1;SDS_P2;PMS_P1;PMS_P2;Temp;Humidity;BMP_temperature;BMP_pressure;BME280_temperature;BME280_humidity;BME280_pressure;Samples;Min_cycle;Max_cycle;Signal;HPM_P1;HPM_P2
2022/09/23 00:00:45;;;;;;;13.70;9.50;;;10.40;99.90;;;;;;5057821;28;20480;-85
2022/09/23 00:03:13;;;;;;;11.40;10.30;;;10.40;99.90;;;;;;5057555;28;20509;-85
2022/09/23 00:05:39;;;;;;;11.80;10.30;;;10.30;99.90;;;;;;5051165;28;20442;-88
2022/09/23 00:08:07;;;;;;;11.83;10.73;;;10.30;99.90;;;;;;5060445;28;20446;-86
2022/09/23 00:10:38;;;;;;;11.80;10.33;;;10.30;99.90;;;;;;5060071;28;20441;-83
2022/09/23 00:13:05;;;;;;;11.97;10.80;;;10.30;99.90;;;;;;5059399;28;20442;-84
2022/09/23 00:15:37;;;;;;;12.40;10.50;;;10.30;99.90;;;;;;5056168;28;20468;-84
2022/09/23 00:18:04;;;;;;;15.67;11.17;;;10.20;99.90;;;;;;5052194;28;20473;-85
2022/09/23 00:20:32;;;;;;;13.03;11.00;;;10.20;99.90;;;;;;5044051;28;20438;-85
2022/09/23 00:22:59;;;;;;;12.53;11.27;;;10.20;99.90;;;;;;5041965;28;20903;-85
2022/09/23 00:25:28;;;;;;;12.53;11.13;;;10.10;99.90;;;;;;5038339;28;20553;-85
2022/09/23 00:27:57;;;;;;;14.30;11.93;;;10.10;99.90;;;;;;5037199;28;20465;-86
2022/09/23 00:30:24;;;;;;;11.23;10.13;;;10.10;99.90;;;;;;5042514;28;20453;-86
2022/09/23 00:32:52;;;;;;;11.13;10.13;;;10.10;99.90;;;;;;5038034;28;20457;-86
2022/09/23 00:35:19;;;;;;;13.00;11.67;;;10.10;99.90;;;;;;5046855;28;20430;-85
2022/09/23 00:37:46;;;;;;;13.13;11.10;;;10.10;99.90;;;;;;5056111;28;20476;-84
2022/09/23 00:40:13;;;;;;;14.30;9.73;;;10.10;99.90;;;;;;5050524;28;20455;-85
2022/09/23 00:42:46;;;;;;;12.80;11.60;;;10.00;99.90;;;;;;5056346;28;20727;-84
2022/09/23 00:45:15;;;;;;;10.97;9.90;;;10.00;99.90;;;;;;5058214;28;20432;-85
2022/09/23 00:47:48;;;;;;;10.67;9.47;;;10.00;99.90;;;;;;5052901;28;20453;-84
2022/09/23 00:50:22;;;;;;;12.70;9.40;;;10.00;99.90;;;;;;5050560;28;20450;-84
2022/09/23 00:52:52;;;;;;;12.70;11.40;;;10.00;99.90;;;;;;5052057;28;20451;-85
2022/09/23 00:55:24;;;;;;;12.30;11.07;;;9.90;99.90;;;;;;5050929;28;20456;-85
2022/09/23 00:57:54;;;;;;;12.93;10.00;;;9.90;99.90;;;;;;5055815;28;20489;-85
2022/09/23 01:00:24;;;;;;;11.43;9.87;;;9.90;99.90;;;;;;5045489;28;20484;-85
2022/09/23 01:02:51;;;;;;;11.30;10.20;;;9.80;99.90;;;;;;5039214;28;20441;-86
2022/09/23 01:05:18;;;;;;;10.53;9.23;;;9.80;99.90;;;;;;5037873;28;20946;-86
2022/09/23 01:07:46;;;;;;;10.70;9.53;;;9.80;99.90;;;;;;5055740;28;20453;-85
2022/09/23 01:10:15;;;;;;;10.23;9.23;;;9.80;99.90;;;;;;5043345;28;20452;-85
2022/09/23 01:12:58;;;;;;;11.70;10.50;;;9.70;99.90;;;;;;5034811;28;20450;-86
2022/09/23 01:15:34;;;;;;;10.60;9.60;;;9.70;99.90;;;;;;5035053;28;20512;-85
2022/09/23 01:18:10;;;;;;;11.90;10.43;;;9.70;99.90;;;;;;5035122;28;20480;-86
2022/09/23 01:20:58;;;;;;;12.40;11.20;;;9.70;99.90;;;;;;5034275;28;20824;-86
2022/09/23 01:23:54;;;;;;;14.13;10.03;;;9.60;99.90;;;;;;5025931;28;20458;-85
2022/09/23 01:26:43;;;;;;;12.87;10.67;;;9.60;99.90;;;;;;5056982;28;20556;-83
2022/09/23 01:29:27;;;;;;;16.50;12.13;;;9.60;99.90;;;;;;5034703;28;20442;-85
2022/09/23 01:32:01;;;;;;;13.23;11.20;;;9.60;99.90;;;;;;5053376;28;20430;-84
2022/09/23 01:34:34;;;;;;;12.83;10.67;;;9.60;99.90;;;;;;5035050;28;20460;-84
2022/09/23 01:37:10;;;;;;;13.60;11.70;;;9.50;99.90;;;;;;5034737;28;20466;-84
2022/09/23 01:39:40;;;;;;;12.73;11.43;;;9.50;99.90;;;;;;5040365;28;20515;-85
2022/09/23 01:42:16;;;;;;;15.63;10.73;;;9.40;99.90;;;;;;5038365;28;20429;-85
2022/09/23 01:44:48;;;;;;;12.43;11.13;;;9.40;99.90;;;;;;5057493;28;20414;-84
2022/09/23 01:47:21;;;;;;;14.50;12.03;;;9.40;99.90;;;;;;5041275;28;20466;-86
2022/09/23 01:49:51;;;;;;;13.47;11.70;;;9.40;99.90;;;;;;5032963;28;20446;-86
2022/09/23 01:52:26;;;;;;;13.07;11.77;;;9.40;99.90;;;;;;5033977;28;20449;-86
2022/09/23 01:54:58;;;;;;;15.00;11.97;;;9.40;99.90;;;;;;5036177;28;20463;-85
2022/09/23 01:57:30;;;;;;;12.13;10.87;;;9.40;99.90;;;;;;5055197;28;20460;-85
2022/09/23 02:00:05;;;;;;;15.40;11.57;;;9.50;99.90;;;;;;5035688;28;20489;-85
2022/09/23 02:02:48;;;;;;;13.53;10.80;;;9.50;99.90;;;;;;5034394;28;20467;-85
2022/09/23 02:05:20;;;;;;;18.30;12.83;;;9.50;99.90;;;;;;5043816;28;20459;-85
2022/09/23 02:07:52;;;;;;;14.17;11.23;;;9.40;99.90;;;;;;5053243;28;20456;-85
2022/09/23 02:10:24;;;;;;;12.57;11.17;;;9.30;99.90;;;;;;5036122;28;20454;-85
2022/09/23 02:12:56;;;;;;;16.30;11.97;;;9.40;99.90;;;;;;5048474;28;20434;-84
2022/09/23 02:15:28;;;;;;;22.37;12.13;;;9.30;99.90;;;;;;5048998;28;20457;-86
2022/09/23 02:18:00;;;;;;;13.70;11.10;;;9.20;99.90;;;;;;5040638;28;20440;-85
2022/09/23 02:20:30;;;;;;;14.43;12.03;;;9.20;99.90;;;;;;5039529;28;20467;-85
2022/09/23 02:23:03;;;;;;;15.23;11.30;;;9.20;99.90;;;;;;5037085;28;20454;-86
2022/09/23 02:25:37;;;;;;;11.43;10.33;;;9.20;99.90;;;;;;5038815;28;20503;-86
2022/09/23 02:28:12;;;;;;;15.60;12.17;;;9.20;99.90;;;;;;5034089;28;20464;-86
2022/09/23 02:30:46;;;;;;;14.13;12.73;;;9.20;99.90;;;;;;5033615;28;21285;-86
2022/09/23 02:33:20;;;;;;;20.40;11.67;;;9.20;99.90;;;;;;5037869;28;20452;-86
2022/09/23 02:35:53;;;;;;;14.33;12.00;;;9.20;99.90;;;;;;5056563;28;20467;-86
2022/09/23 02:38:29;;;;;;;17.80;12.90;;;9.10;99.90;;;;;;5051128;28;20444;-87
2022/09/23 02:40:58;;;;;;;12.33;10.90;;;9.00;99.90;;;;;;5034384;28;20872;-87
2022/09/23 02:43:34;;;;;;;15.67;12.77;;;9.00;99.90;;;;;;5033661;28;20450;-85
2022/09/23 02:46:01;;;;;;;19.27;12.73;;;9.00;99.90;;;;;;5033807;28;20839;-85
2022/09/23 02:48:34;;;;;;;14.80;12.83;;;9.00;99.90;;;;;;5035362;28;20453;-86
2022/09/23 02:51:02;;;;;;;14.97;11.10;;;9.00;99.90;;;;;;5038568;28;20480;-85
2022/09/23 02:53:32;;;;;;;13.50;12.00;;;9.00;99.90;;;;;;5041562;28;20449;-86
2022/09/23 02:55:59;;;;;;;13.00;11.13;;;9.00;99.90;;;;;;5042775;28;20497;-86
2022/09/23 02:58:26;;;;;;;14.17;11.27;;;9.00;99.90;;;;;;5056772;28;20477;-86
2022/09/23 03:01:03;;;;;;;13.60;11.17;;;9.00;99.90;;;;;;5059781;28;20444;-86
2022/09/23 03:03:40;;;;;;;17.00;11.80;;;9.00;99.90;;;;;;5052477;28;20863;-86
2022/09/23 03:06:19;;;;;;;12.30;11.00;;;9.00;99.90;;;;;;5054696;28;20460;-83
2022/09/23 03:08:52;;;;;;;14.60;12.13;;;9.00;99.90;;;;;;5060849;28;20441;-84
2022/09/23 03:11:20;;;;;;;19.40;12.97;;;8.90;99.90;;;;;;5060358;28;20429;-86
2022/09/23 03:14:15;;;;;;;14.53;13.00;;;8.80;99.90;;;;;;5042214;28;20453;-85
2022/09/23 03:16:47;;;;;;;14.93;11.77;;;8.80;99.90;;;;;;5040476;28;20552;-85
2022/09/23 03:19:27;;;;;;;12.70;11.37;;;8.70;99.90;;;;;;5039517;28;20484;-86
2022/09/23 03:22:00;;;;;;;14.33;12.80;;;8.70;99.90;;;;;;5038611;28;20956;-85
2022/09/23 03:24:31;;;;;;;15.30;12.60;;;8.60;99.90;;;;;;5044557;28;20452;-85
2022/09/23 03:27:01;;;;;;;16.83;11.87;;;8.60;99.90;;;;;;5059724;28;20458;-83
2022/09/23 03:29:29;;;;;;;14.80;11.97;;;8.60;99.90;;;;;;5060992;28;20428;-83
2022/09/23 03:31:57;;;;;;;14.33;12.10;;;8.60;99.90;;;;;;5059298;28;20449;-84
2022/09/23 03:34:29;;;;;;;17.53;11.23;;;8.60;99.90;;;;;;5058992;28;20426;-86
2022/09/23 03:37:02;;;;;;;13.67;12.30;;;8.60;99.90;;;;;;5051153;28;20449;-85
2022/09/23 03:39:35;;;;;;;11.53;10.33;;;8.60;99.90;;;;;;5045554;28;20549;-86
2022/09/23 03:53:19;;;;;;;;;;;;;;;;;;;;;
2022/09/23 04:12:23;;;;;;;12.60;11.23;;;8.60;99.90;;;;;;4934667;29;20495;-87
2022/09/23 04:14:52;;;;;;;15.20;12.27;;;8.60;99.90;;;;;;4975573;28;20444;-87
2022/09/23 04:17:19;;;;;;;14.60;10.63;;;8.50;99.90;;;;;;5033986;28;20445;-87
2022/09/23 04:19:45;;;;;;;16.00;12.07;;;8.60;99.90;;;;;;5042176;28;20499;-87
2022/09/23 04:22:13;;;;;;;12.93;11.27;;;8.50;99.90;;;;;;5052535;28;20466;-87
2022/09/23 04:24:40;;;;;;;12.83;11.47;;;8.40;99.90;;;;;;5036036;28;20437;-87
2022/09/23 04:27:07;;;;;;;15.00;11.40;;;8.40;99.90;;;;;;5033842;28;20877;-87
2022/09/23 04:29:35;;;;;;;14.30;11.67;;;8.40;99.90;;;;;;5034011;28;20446;-87
2022/09/23 04:32:02;;;;;;;14.17;12.33;;;8.40;99.90;;;;;;5033936;28;20476;-87
2022/09/23 04:34:28;;;;;;;15.37;12.53;;;8.40;99.90;;;;;;5033421;28;20450;-87
2022/09/23 04:36:57;;;;;;;12.97;10.63;;;8.30;99.90;;;;;;5032825;28;20450;-87
2022/09/23 04:39:24;;;;;;;14.60;11.30;;;8.40;99.90;;;;;;5033575;28;20477;-87
2022/09/23 04:41:51;;;;;;;14.47;11.17;;;8.40;99.90;;;;;;5033711;28;20454;-87
2022/09/23 04:44:19;;;;;;;14.73;11.90;;;8.30;99.90;;;;;;5033378;28;20500;-87
2022/09/23 04:46:48;;;;;;;13.30;10.70;;;8.30;99.90;;;;;;5033642;28;20454;-86
2022/09/23 04:49:17;;;;;;;19.50;12.07;;;8.30;99.90;;;;;;5053787;28;20472;-86
2022/09/23 04:51:44;;;;;;;13.70;11.70;;;8.30;99.90;;;;;;5058034;28;20477;-87
2022/09/23 04:54:13;;;;;;;23.80;12.80;;;8.30;99.90;;;;;;5066172;28;20440;-86
2022/09/23 04:56:41;;;;;;;14.80;11.23;;;8.30;99.90;;;;;;5062720;28;20452;-86
2022/09/23 04:59:13;;;;;;;12.03;10.90;;;8.30;99.90;;;;;;5073880;28;20457;-86
2022/09/23 05:05:02;;;;;;;11.40;9.87;;;8.30;99.90;;;;;;4899893;29;20445;-87
2022/09/23 05:07:29;;;;;;;10.27;9.27;;;8.40;99.90;;;;;;5033462;28;20453;-87
2022/09/23 05:09:56;;;;;;;12.60;11.33;;;8.50;99.90;;;;;;5054262;28;20443;-87
2022/09/23 05:12:23;;;;;;;12.17;9.70;;;8.50;99.90;;;;;;5053938;28;20477;-84
2022/09/23 05:14:49;;;;;;;12.53;10.00;;;8.40;99.90;;;;;;5053226;28;20451;-87
2022/09/23 05:17:16;;;;;;;11.20;10.20;;;8.40;99.90;;;;;;5052936;28;20449;-87
2022/09/23 05:19:43;;;;;;;11.10;9.77;;;8.40;99.90;;;;;;5052735;28;20477;-87
2022/09/23 05:22:11;;;;;;;12.73;10.50;;;8.50;99.90;;;;;;5062766;28;20456;-87
2022/09/23 05:24:37;;;;;;;13.83;11.20;;;8.50;99.90;;;;;;5070958;28;20449;-87
2022/09/23 05:27:06;;;;;;;11.60;9.90;;;8.50;99.90;;;;;;5059848;28;20449;-87
2022/09/23 05:29:33;;;;;;;11.27;10.07;;;8.50;99.90;;;;;;5064089;28;20501;-87
2022/09/23 05:32:01;;;;;;;14.87;10.30;;;8.50;99.90;;;;;;5072101;28;20483;-87
2022/09/23 05:34:27;;;;;;;13.13;11.67;;;8.60;99.90;;;;;;5068334;28;20437;-87
2022/09/23 05:36:54;;;;;;;14.13;12.53;;;8.60;99.90;;;;;;5059793;28;20445;-87
2022/09/23 05:39:22;;;;;;;16.93;12.90;;;8.60;99.90;;;;;;5067568;28;20453;-87
2022/09/23 05:41:49;;;;;;;20.93;12.40;;;8.60;99.90;;;;;;5072287;28;20460;-87
2022/09/23 05:44:16;;;;;;;16.33;11.13;;;8.60;99.90;;;;;;5053255;28;20455;-87
2022/09/23 05:46:43;;;;;;;12.90;10.67;;;8.70;99.90;;;;;;5052990;28;20487;-87
2022/09/23 05:49:09;;;;;;;15.90;10.90;;;8.70;99.90;;;;;;5052429;28;20941;-87
2022/09/23 05:51:36;;;;;;;13.63;11.70;;;8.70;99.90;;;;;;5051888;28;20469;-88
2022/09/23 05:54:04;;;;;;;14.80;11.03;;;8.80;99.90;;;;;;5052382;28;20510;-87
2022/09/23 05:56:33;;;;;;;13.70;10.30;;;8.80;99.90;;;;;;5052631;28;20482;-87
2022/09/23 05:59:01;;;;;;;15.30;11.83;;;8.80;99.90;;;;;;5066393;28;20429;-85
2022/09/23 06:01:32;;;;;;;11.73;10.53;;;8.90;99.90;;;;;;5076441;28;20499;-86
2022/09/23 06:03:59;;;;;;;13.83;10.70;;;8.90;99.90;;;;;;5064953;28;20449;-87
2022/09/23 06:06:28;;;;;;;12.37;11.10;;;9.00;99.90;;;;;;5053291;28;20453;-87
2022/09/23 06:08:56;;;;;;;14.37;10.60;;;9.10;99.90;;;;;;5053218;28;20455;-86
2022/09/23 06:11:22;;;;;;;17.23;12.83;;;9.10;99.90;;;;;;5062795;28;20451;-87
2022/09/23 06:13:54;;;;;;;13.23;11.13;;;9.10;99.90;;;;;;5076194;28;20436;-87
2022/09/23 06:16:21;;;;;;;13.40;12.10;;;9.10;99.90;;;;;;5061198;28;20444;-87
2022/09/23 06:18:48;;;;;;;15.20;11.90;;;9.10;99.90;;;;;;5053362;28;20964;-88
2022/09/23 06:21:16;;;;;;;12.40;10.60;;;9.20;99.90;;;;;;5057930;28;21016;-88
2022/09/23 06:23:44;;;;;;;15.87;12.07;;;9.30;99.90;;;;;;5061076;28;20440;-87
2022/09/23 06:26:14;;;;;;;19.00;13.03;;;9.30;99.90;;;;;;5057542;28;20433;-85
2022/09/23 06:28:42;;;;;;;13.03;10.30;;;9.40;99.90;;;;;;5056892;28;20517;-85
2022/09/23 06:31:12;;;;;;;17.90;12.13;;;9.50;99.90;;;;;;5057597;28;20448;-85
2022/09/23 06:33:39;;;;;;;12.00;10.70;;;9.50;99.90;;;;;;5063088;28;20820;-85
2022/09/23 06:36:08;;;;;;;12.17;10.97;;;9.60;99.90;;;;;;5078153;28;20441;-85
2022/09/23 06:38:38;;;;;;;12.40;10.73;;;9.70;99.90;;;;;;5072830;28;20448;-85
2022/09/23 06:41:04;;;;;;;18.23;12.47;;;9.80;99.90;;;;;;5057549;28;20483;-86
2022/09/23 06:43:31;;;;;;;10.83;9.83;;;9.90;99.90;;;;;;5061805;28;21031;-86
2022/09/23 06:46:00;;;;;;;11.50;10.50;;;10.00;99.90;;;;;;5058548;28;20448;-85
2022/09/23 06:48:28;;;;;;;14.00;11.13;;;10.00;99.90;;;;;;5056410;28;20487;-87
2022/09/23 06:51:01;;;;;;;12.07;9.33;;;10.10;99.90;;;;;;5056917;28;20456;-86
2022/09/23 06:53:30;;;;;;;10.23;9.33;;;10.20;99.90;;;;;;5056083;28;20464;-86
2022/09/23 06:55:59;;;;;;;15.53;10.40;;;10.30;99.90;;;;;;5055703;28;20448;-86
2022/09/23 06:58:26;;;;;;;10.77;9.70;;;10.40;99.90;;;;;;5055541;28;21040;-86
2022/09/23 07:00:53;;;;;;;11.13;9.93;;;10.60;99.90;;;;;;5059824;28;20519;-86
2022/09/23 07:03:21;;;;;;;11.80;9.57;;;10.60;99.90;;;;;;5074059;28;20456;-86
2022/09/23 07:05:49;;;;;;;9.07;8.17;;;10.70;99.90;;;;;;5059771;28;20726;-86
2022/09/23 07:08:15;;;;;;;10.20;9.20;;;10.80;99.90;;;;;;5071211;28;20444;-86
2022/09/23 07:10:42;;;;;;;13.23;9.30;;;10.90;99.90;;;;;;5070173;28;20456;-85
2022/09/23 07:13:09;;;;;;;11.07;8.77;;;11.00;99.90;;;;;;5067414;28;20472;-87
2022/09/23 07:15:35;;;;;;;13.50;8.60;;;11.10;99.90;;;;;;5077839;28;20440;-86
2022/09/23 07:18:02;;;;;;;12.03;8.50;;;11.20;99.90;;;;;;5076198;28;20440;-87
2022/09/23 07:20:29;;;;;;;12.10;8.40;;;11.40;99.90;;;;;;5054960;28;20864;-87
2022/09/23 07:22:57;;;;;;;10.63;8.30;;;11.60;99.90;;;;;;5054662;28;20488;-86
2022/09/23 07:25:23;;;;;;;8.13;7.30;;;11.70;99.90;;;;;;5054980;28;20447;-87
2022/09/23 07:27:50;;;;;;;8.00;7.30;;;12.00;99.90;;;;;;5056174;28;20445;-87
2022/09/23 07:30:17;;;;;;;8.77;7.10;;;12.30;99.90;;;;;;5078410;28;20433;-87
2022/09/23 07:32:44;;;;;;;8.60;7.70;;;12.50;99.90;;;;;;5066355;28;20514;-87
2022/09/23 07:35:10;;;;;;;10.00;7.50;;;12.50;99.90;;;;;;5054754;28;20463;-87
2022/09/23 07:37:38;;;;;;;9.70;8.00;;;12.70;99.90;;;;;;5056088;28;20536;-87
2022/09/23 07:40:07;;;;;;;10.87;7.57;;;12.80;99.90;;;;;;5053672;28;20468;-87
2022/09/23 07:42:34;;;;;;;10.60;7.90;;;13.10;99.90;;;;;;5055099;28;20526;-87
2022/09/23 07:45:01;;;;;;;7.47;6.63;;;13.30;99.90;;;;;;5063792;28;20435;-86
2022/09/23 07:47:27;;;;;;;7.67;6.93;;;13.40;99.90;;;;;;5042185;28;20440;-87
2022/09/23 07:49:54;;;;;;;10.43;6.80;;;13.70;99.90;;;;;;5038996;28;20448;-82
2022/09/23 07:52:21;;;;;;;6.83;6.20;;;13.80;99.90;;;;;;5045090;28;20974;-83
2022/09/23 07:54:47;;;;;;;11.70;6.53;;;14.00;99.90;;;;;;5045530;28;20456;-83
2022/09/23 07:57:15;;;;;;;6.77;6.17;;;14.30;99.40;;;;;;5044030;28;20481;-83
2022/09/23 07:59:42;;;;;;;6.70;6.07;;;14.50;98.30;;;;;;5045498;28;20508;-82
2022/09/23 08:02:14;;;;;;;9.43;7.07;;;14.60;97.60;;;;;;5043968;28;20513;-83
2022/09/23 08:04:40;;;;;;;9.23;6.67;;;14.70;97.40;;;;;;5042343;28;20449;-86
2022/09/23 08:07:07;;;;;;;7.33;6.53;;;14.80;96.90;;;;;;5051538;28;20454;-87
2022/09/23 08:09:38;;;;;;;6.30;5.80;;;15.00;96.60;;;;;;5035615;28;20453;-87
2022/09/23 08:12:06;;;;;;;7.10;6.00;;;15.10;96.40;;;;;;5042520;28;20458;-86
2022/09/23 08:14:34;;;;;;;8.90;6.83;;;15.10;96.60;;;;;;5058459;28;20442;-87
2022/09/23 08:17:00;;;;;;;6.27;5.63;;;15.10;96.00;;;;;;5055213;28;20446;-86
2022/09/23 08:19:27;;;;;;;7.53;6.03;;;15.10;95.70;;;;;;5037550;28;20527;-86
2022/09/23 08:21:54;;;;;;;11.10;6.80;;;15.10;95.60;;;;;;5034997;28;20490;-86
2022/09/23 08:24:22;;;;;;;10.43;6.73;;;15.50;95.80;;;;;;5034099;28;20453;-86
2022/09/23 08:26:52;;;;;;;7.37;6.03;;;15.70;95.20;;;;;;5033355;28;20452;-87
2022/09/23 08:29:20;;;;;;;6.97;5.77;;;15.80;94.70;;;;;;5032529;28;20460;-86
2022/09/23 08:31:49;;;;;;;8.20;6.30;;;15.70;94.50;;;;;;5037821;28;21171;-86
2022/09/23 08:34:17;;;;;;;9.23;6.13;;;15.90;94.70;;;;;;5055393;28;20446;-85
2022/09/23 08:36:44;;;;;;;9.00;7.63;;;16.30;94.70;;;;;;5045481;28;20442;-86
2022/09/23 08:39:13;;;;;;;11.87;7.73;;;16.50;93.50;;;;;;5036527;28;20452;-86
2022/09/23 08:41:46;;;;;;;7.40;6.70;;;16.60;93.10;;;;;;5033141;28;20897;-86
2022/09/23 08:44:17;;;;;;;8.40;7.00;;;16.80;93.60;;;;;;5034460;28;20515;-86
2022/09/23 08:46:49;;;;;;;10.80;7.10;;;16.90;92.30;;;;;;5039803;28;20430;-86
2022/09/23 08:49:24;;;;;;;11.43;7.00;;;16.80;92.40;;;;;;5035927;28;20525;-85
2022/09/23 08:51:53;;;;;;;8.53;6.60;;;16.90;92.00;;;;;;5033874;28;20512;-86
2022/09/23 08:54:20;;;;;;;10.13;7.87;;;16.80;91.90;;;;;;5033974;28;20511;-86
2022/09/23 08:56:51;;;;;;;7.10;6.17;;;16.70;91.70;;;;;;5034968;28;20453;-86
2022/09/23 08:59:22;;;;;;;7.13;6.43;;;17.00;91.50;;;;;;5031941;28;20457;-86
2022/09/23 09:01:53;;;;;;;7.03;5.50;;;17.20;90.60;;;;;;5032958;28;20539;-86
2022/09/23 09:04:27;;;;;;;7.17;5.57;;;17.90;90.20;;;;;;5033377;28;20450;-86
2022/09/23 09:07:00;;;;;;;8.83;5.70;;;17.90;88.10;;;;;;5034626;28;20476;-86
2022/09/23 09:09:31;;;;;;;6.13;5.53;;;18.30;87.20;;;;;;5048948;28;20480;-87
2022/09/23 09:12:03;;;;;;;6.73;5.20;;;18.80;84.90;;;;;;5045200;28;20472;-87
2022/09/23 09:14:36;;;;;;;7.03;5.43;;;19.00;82.90;;;;;;5033323;28;20540;-87
2022/09/23 09:17:07;;;;;;;8.33;6.33;;;19.50;81.80;;;;;;5033513;28;20537;-87
2022/09/23 09:19:52;;;;;;;11.13;6.97;;;20.10;80.40;;;;;;5042327;28;20444;-87
2022/09/23 09:22:22;;;;;;;6.47;5.57;;;21.00;76.20;;;;;;5075325;28;20583;-87
2022/09/23 09:24:49;;;;;;;6.97;5.20;;;21.50;73.10;;;;;;5058025;28;20486;-86
2022/09/23 09:27:16;;;;;;;7.40;5.20;;;21.70;71.00;;;;;;5052541;28;20531;-87
2022/09/23 09:29:46;;;;;;;7.67;6.27;;;21.40;70.30;;;;;;5050940;28;20813;-87
2022/09/23 09:32:22;;;;;;;10.07;6.10;;;22.10;69.90;;;;;;5052093;28;20465;-87
2022/09/23 09:34:54;;;;;;;5.70;5.10;;;22.20;69.10;;;;;;5051365;28;20444;-87
2022/09/23 09:37:27;;;;;;;6.23;5.63;;;22.30;67.60;;;;;;5052059;28;20477;-87
2022/09/23 09:39:54;;;;;;;6.30;5.57;;;22.60;68.20;;;;;;5053343;28;20858;-87
2022/09/23 09:42:26;;;;;;;8.30;5.20;;;23.10;65.50;;;;;;5081577;22;20488;-80
2022/09/23 09:44:58;;;;;;;6.37;4.83;;;22.60;64.40;;;;;;5064509;28;20444;-79
2022/09/23 09:47:35;;;;;;;7.03;5.20;;;23.00;66.10;;;;;;5064222;28;20437;-82
2022/09/23 09:50:06;;;;;;;6.90;5.77;;;23.70;63.90;;;;;;5055090;28;20453;-82
2022/09/23 09:52:33;;;;;;;6.23;5.10;;;24.00;61.10;;;;;;5054791;28;20484;-82
2022/09/23 09:55:24;;;;;;;4.70;4.30;;;25.10;59.30;;;;;;5054414;28;20449;-83
2022/09/23 09:57:54;;;;;;;5.20;4.60;;;25.80;57.70;;;;;;5054826;28;20870;-82
2022/09/23 10:00:41;;;;;;;7.97;4.70;;;26.40;56.80;;;;;;5054981;28;20447;-83
2022/09/23 10:03:29;;;;;;;6.40;5.70;;;25.90;55.50;;;;;;5053802;28;21123;-82
2022/09/23 10:05:56;;;;;;;6.30;5.30;;;26.60;55.10;;;;;;5053815;28;20488;-82
2022/09/23 10:08:28;;;;;;;5.47;5.07;;;26.80;53.60;;;;;;5053339;28;20489;-82
2022/09/23 10:11:01;;;;;;;5.50;4.90;;;27.20;54.20;;;;;;5054408;28;20533;-82
2022/09/23 10:13:29;;;;;;;5.57;5.00;;;28.40;51.70;;;;;;5066044;28;20467;-80
2022/09/23 10:15:56;;;;;;;5.33;4.80;;;29.50;48.80;;;;;;5060829;28;20448;-82
2022/09/23 10:18:29;;;;;;;6.70;4.57;;;29.90;47.80;;;;;;5054207;28;20441;-81
2022/09/23 10:21:02;;;;;;;5.40;4.90;;;30.50;46.20;;;;;;5055035;28;20931;-82
2022/09/23 10:23:32;;;;;;;6.90;5.43;;;30.50;45.50;;;;;;5069522;28;20476;-79
2022/09/23 10:26:01;;;;;;;5.77;5.27;;;30.30;44.80;;;;;;5057822;28;20455;-81
2022/09/23 10:28:32;;;;;;;6.00;4.80;;;30.30;44.90;;;;;;5054836;28;20487;-82
2022/09/23 10:31:12;;;;;;;4.80;4.33;;;30.20;45.80;;;;;;5054503;28;20798;-82
2022/09/23 10:33:48;;;;;;;5.13;4.63;;;30.80;44.80;;;;;;5055207;28;20494;-83
2022/09/23 10:36:16;;;;;;;6.77;4.83;;;30.70;43.50;;;;;;5054211;28;20452;-82
2022/09/23 10:38:43;;;;;;;6.40;3.60;;;31.60;43.80;;;;;;5054904;28;20531;-82
2022/09/23 10:47:15;;;;;;;5.17;4.50;;;32.60;40.00;;;;;;5054310;28;20904;-82
2022/09/23 10:50:03;;;;;;;4.33;4.03;;;31.70;40.70;;;;;;5053668;28;20507;-82
2022/09/23 10:52:47;;;;;;;5.30;4.60;;;31.20;41.90;;;;;;5054090;28;20476;-85
2022/09/23 10:55:29;;;;;;;5.27;4.77;;;31.60;41.30;;;;;;5054332;28;20490;-82
2022/09/23 10:58:18;;;;;;;5.70;5.10;;;31.00;42.00;;;;;;5060806;28;20804;-81
2022/09/23 11:00:56;;;;;;;4.80;4.30;;;34.00;39.30;;;;;;5054165;28;20456;-83
2022/09/23 11:03:44;;;;;;;5.47;4.97;;;34.40;37.90;;;;;;5054893;28;20474;-81
2022/09/23 11:06:23;;;;;;;9.23;4.70;;;35.00;37.40;;;;;;5055717;28;20446;-83
2022/09/23 11:09:05;;;;;;;5.03;4.50;;;34.70;36.50;;;;;;5058804;28;20982;-81
2022/09/23 11:11:40;;;;;;;5.10;3.60;;;33.90;36.40;;;;;;5064552;28;20444;-80
2022/09/23 11:14:21;;;;;;;5.40;4.33;;;31.40;38.00;;;;;;5065264;28;20478;-81
2022/09/23 11:17:04;;;;;;;6.00;4.23;;;30.60;40.80;;;;;;5057371;28;20444;-83
2022/09/23 11:19:52;;;;;;;6.23;3.80;;;31.30;40.80;;;;;;5057260;28;20524;-80
2022/09/23 11:22:36;;;;;;;4.87;4.33;;;33.20;38.50;;;;;;5037023;28;20520;-82
2022/09/23 11:25:24;;;;;;;8.43;3.87;;;33.70;38.10;;;;;;5037391;28;20541;-83
2022/09/23 11:28:16;;;;;;;8.97;4.00;;;32.80;37.00;;;;;;5036717;28;20459;-81
2022/09/23 11:30:53;;;;;;;4.30;2.70;;;32.70;37.50;;;;;;5027535;28;20542;-83
2022/09/23 11:33:30;;;;;;;3.87;3.20;;;32.40;37.40;;;;;;5044273;28;20458;-83
2022/09/23 11:36:00;;;;;;;4.20;2.93;;;32.60;37.20;;;;;;5051369;28;20441;-82
2022/09/23 11:38:35;;;;;;;5.67;3.27;;;33.30;35.90;;;;;;5042017;28;20755;-82
2022/09/23 11:41:12;;;;;;;3.60;2.87;;;34.10;35.90;;;;;;5038957;28;20831;-83
2022/09/23 11:43:42;;;;;;;2.80;2.50;;;35.10;34.50;;;;;;5037526;28;20472;-83
2022/09/23 11:46:18;;;;;;;5.53;3.20;;;35.70;32.50;;;;;;5037024;28;20449;-84
2022/09/23 11:48:51;;;;;;;5.20;3.27;;;36.20;31.60;;;;;;5037371;28;20452;-83
2022/09/23 11:51:24;;;;;;;4.03;3.20;;;36.10;31.10;;;;;;5055725;28;20918;-81
2022/09/23 11:53:57;;;;;;;5.20;3.40;;;35.30;32.40;;;;;;5058071;28;20463;-83
2022/09/23 11:56:28;;;;;;;4.43;3.33;;;36.10;31.80;;;;;;5058583;28;20448;-83
2022/09/23 11:59:01;;;;;;;4.13;3.00;;;33.90;33.00;;;;;;5058480;28;20462;-84
2022/09/23 12:01:34;;;;;;;5.23;4.23;;;33.00;34.20;;;;;;5061579;28;20555;-81
2022/09/23 12:04:06;;;;;;;3.50;3.20;;;32.30;35.40;;;;;;5070761;28;20514;-82
2022/09/23 12:06:36;;;;;;;4.43;3.87;;;33.70;35.20;;;;;;5058632;28;20454;-82
2022/09/23 12:09:14;;;;;;;3.93;3.53;;;35.30;32.90;;;;;;5061414;28;20498;-81
2022/09/23 12:11:46;;;;;;;5.63;4.03;;;36.40;31.80;;;;;;5070062;28;20465;-83
2022/09/23 12:14:20;;;;;;;5.77;3.43;;;37.10;30.70;;;;;;5061236;28;20470;-83
2022/09/23 12:17:11;;;;;;;3.87;3.40;;;38.00;30.00;;;;;;5064372;28;20455;-84
2022/09/23 12:19:54;;;;;;;6.50;4.40;;;38.10;29.70;;;;;;5061945;28;20472;-84
2022/09/23 12:22:42;;;;;;;4.80;3.63;;;38.00;29.70;;;;;;5061175;28;20645;-81
2022/09/23 12:25:33;;;;;;;4.87;4.03;;;37.20;29.80;;;;;;5060653;28;20462;-82
2022/09/23 12:28:03;;;;;;;3.80;3.50;;;36.90;30.00;;;;;;5058774;28;20446;-84
2022/09/23 12:30:34;;;;;;;4.80;3.83;;;36.50;30.00;;;;;;5058187;28;20873;-83
2022/09/23 12:33:08;;;;;;;4.30;4.00;;;35.60;30.70;;;;;;5056906;28;20813;-82
2022/09/23 12:35:40;;;;;;;4.57;4.17;;;33.70;32.80;;;;;;5061825;28;20487;-81
2022/09/23 12:38:14;;;;;;;4.20;3.80;;;32.00;35.10;;;;;;5063711;28;20444;-82
2022/09/23 12:40:43;;;;;;;4.63;4.20;;;30.90;36.70;;;;;;5063620;28;20458;-83
2022/09/23 12:43:17;;;;;;;4.87;3.73;;;30.40;37.80;;;;;;5056131;28;20513;-83
2022/09/23 12:45:44;;;;;;;6.90;4.03;;;30.40;38.20;;;;;;5056694;28;20454;-84
2022/09/23 12:48:46;;;;;;;4.90;4.50;;;30.70;38.40;;;;;;5056872;28;20502;-82
2022/09/23 12:51:16;;;;;;;4.57;4.17;;;32.40;36.50;;;;;;5056841;28;20530;-82
2022/09/23 12:53:59;;;;;;;5.83;4.50;;;33.40;35.00;;;;;;5056191;28;20471;-83
2022/09/23 12:56:56;;;;;;;4.30;3.87;;;33.90;34.30;;;;;;5056255;28;20444;-82
2022/09/23 12:59:31;;;;;;;6.20;5.30;;;33.90;34.30;;;;;;5057163;28;20440;-82
2022/09/23 13:02:09;;;;;;;6.93;4.50;;;34.20;33.80;;;;;;5059028;28;20906;-83
2022/09/23 13:07:32;;;;;;;4.97;4.53;;;34.00;33.40;;;;;;5056073;28;20427;-84
2022/09/23 13:10:07;;;;;;;5.47;4.90;;;33.60;34.20;;;;;;5055785;28;20553;-81
2022/09/23 13:12:39;;;;;;;5.87;4.63;;;32.20;34.80;;;;;;5056208;28;20489;-83
2022/09/23 13:15:16;;;;;;;7.33;4.37;;;31.20;36.60;;;;;;5056055;28;20443;-83
2022/09/23 13:17:43;;;;;;;5.87;5.27;;;30.30;37.80;;;;;;5055537;28;21035;-82
2022/09/23 13:20:37;;;;;;;5.10;4.70;;;29.40;39.30;;;;;;5056111;28;21030;-83
2022/09/23 13:23:21;;;;;;;8.90;5.40;;;28.60;40.80;;;;;;5055541;28;20494;-83
2022/09/23 13:25:50;;;;;;;5.80;4.60;;;28.20;41.80;;;;;;5060041;28;20437;-83
2022/09/23 13:28:30;;;;;;;5.40;4.90;;;28.00;42.40;;;;;;5058082;28;20452;-83
2022/09/23 13:30:57;;;;;;;7.00;6.30;;;27.60;42.90;;;;;;5056522;28;21038;-84
2022/09/23 13:33:33;;;;;;;5.70;5.10;;;27.90;42.80;;;;;;5056216;28;20487;-82
2022/09/23 13:36:03;;;;;;;5.43;4.97;;;27.60;43.30;;;;;;5054870;28;20495;-83
2022/09/23 13:38:31;;;;;;;5.97;5.03;;;26.90;44.00;;;;;;5055350;28;20510;-83
2022/09/23 13:41:02;;;;;;;5.57;5.00;;;26.60;44.70;;;;;;5055516;28;20459;-82
2022/09/23 13:43:34;;;;;;;5.07;4.57;;;26.30;45.60;;;;;;5054710;28;20496;-83
2022/09/23 13:46:04;;;;;;;5.70;5.30;;;26.30;45.90;;;;;;5054805;28;20452;-83